Murdock, Minnesota
Current Conditions -  °F | °C
As of 6:15 AM on Sunday 23 Nov 2014 (Local Time) from KBDH Reporting Station
Haze Haze  
Wind Chill: 37°   Ceiling: Unl
Heat Index: 37°   Visibility: 5mi
Dew Point: 34°   Wind: 3mph
Humidity: 87%   Direction: 260°W
Pressure: 29.44"   Gusts: NA
Location:  45.22°N, 95.39°W
Report Text: KBDH 231215Z AUTO 26003KT 5SM BR CLR 03/01 A2944 RMK AO2
Loading
Personal Weather Stations






























Interactive Weather Map New forecast layout! Learn more

10-Day Weather Forecast

Advertisements
Track Severe Weather on mobile